createdAt,value
2022-11-15T00:03:00.297Z,100634.81
2022-11-15T00:06:06.104Z,100634.91
2022-11-15T00:09:11.825Z,100642.63
2022-11-15T00:12:17.731Z,100635.97
2022-11-15T00:15:23.763Z,100622.44
2022-11-15T00:18:30.749Z,100626.63
2022-11-15T00:21:36.710Z,100627.22
2022-11-15T00:24:43.695Z,100623.00
2022-11-15T00:27:50.457Z,100617.00
2022-11-15T00:31:03.743Z,100615.31
2022-11-15T00:34:10.635Z,100613.84
2022-11-15T00:37:16.520Z,100619.88
2022-11-15T00:40:22.460Z,100613.84
2022-11-15T00:43:28.708Z,100607.97
2022-11-15T00:46:34.785Z,100604.69
2022-11-15T00:49:42.006Z,100604.53
2022-11-15T00:52:47.939Z,100598.41
2022-11-15T00:55:53.841Z,100585.72
2022-11-15T00:59:00.021Z,100582.50
2022-11-15T01:02:06.141Z,100584.22
2022-11-15T01:05:12.477Z,100581.00
2022-11-15T01:08:18.567Z,100577.47
2022-11-15T01:11:24.738Z,100580.78
2022-11-15T01:14:30.743Z,100578.22
2022-11-15T01:17:36.835Z,100579.09
2022-11-15T01:20:43.451Z,100578.47
2022-11-15T01:23:49.619Z,100579.47
2022-11-15T01:26:55.520Z,100575.91
2022-11-15T01:30:01.722Z,100564.13
2022-11-15T01:33:08.168Z,100557.44
2022-11-15T01:36:16.930Z,100544.75
2022-11-15T01:39:22.910Z,100552.56
2022-11-15T01:42:29.072Z,100553.50
2022-11-15T01:45:35.216Z,100559.50
2022-11-15T01:48:41.640Z,100558.75
2022-11-15T01:51:48.274Z,100557.13
2022-11-15T01:54:57.555Z,100559.69
2022-11-15T01:58:05.504Z,100556.38
2022-11-15T02:01:11.621Z,100560.00
2022-11-15T02:04:20.308Z,100549.13
2022-11-15T02:07:26.405Z,100567.91
2022-11-15T02:10:32.404Z,100558.72
2022-11-15T02:13:39.480Z,100554.56
2022-11-15T02:17:11.916Z,100551.47
2022-11-15T02:20:36.723Z,100552.13
2022-11-15T02:23:54.493Z,100557.41
2022-11-15T02:27:19.335Z,100545.69
2022-11-15T02:30:30.048Z,100543.13
2022-11-15T02:33:55.858Z,100549.00
2022-11-15T02:37:04.662Z,100544.69
2022-11-15T02:40:20.223Z,100542.41
2022-11-15T02:43:56.696Z,100537.44
2022-11-15T02:47:16.451Z,100539.44
2022-11-15T02:50:25.506Z,100544.03
2022-11-15T02:53:31.474Z,100541.56
2022-11-15T02:56:37.488Z,100536.72
2022-11-15T02:59:46.050Z,100540.25
2022-11-15T03:03:21.588Z,100529.13
2022-11-15T03:06:30.233Z,100531.66
2022-11-15T03:09:56.270Z,100522.94
2022-11-15T03:13:05.207Z,100516.09
2022-11-15T03:16:30.276Z,100523.13
2022-11-15T03:19:46.851Z,100515.88
2022-11-15T03:22:54.527Z,100498.22
2022-11-15T03:26:01.873Z,100501.59
2022-11-15T03:29:14.697Z,100502.53
2022-11-15T03:32:24.031Z,100511.91
2022-11-15T03:35:33.812Z,100521.06
2022-11-15T03:38:39.951Z,100528.63
2022-11-15T03:41:58.468Z,100523.66
2022-11-15T03:45:12.419Z,100514.38
2022-11-15T03:48:29.353Z,100514.19
2022-11-15T03:51:35.086Z,100515.94
2022-11-15T03:54:51.007Z,100516.84
2022-11-15T03:57:59.564Z,100514.19
2022-11-15T04:01:05.935Z,100505.13
2022-11-15T04:04:12.339Z,100507.78
2022-11-15T04:07:18.682Z,100514.69
2022-11-15T04:10:25.098Z,100504.56
2022-11-15T04:13:32.071Z,100505.41
2022-11-15T04:16:43.529Z,100501.84
2022-11-15T04:20:09.401Z,100505.41
2022-11-15T04:23:35.669Z,100502.34
2022-11-15T04:26:42.945Z,100497.53
2022-11-15T04:29:49.669Z,100499.13
2022-11-15T04:32:55.807Z,100498.88
2022-11-15T04:36:25.573Z,100497.97
2022-11-15T04:39:31.212Z,100499.53
2022-11-15T04:42:37.149Z,100491.88
2022-11-15T04:45:42.979Z,100488.50
2022-11-15T04:48:59.263Z,100481.91
2022-11-15T04:52:06.271Z,100478.50
2022-11-15T04:55:12.765Z,100475.06
2022-11-15T04:58:19.024Z,100469.88
2022-11-15T05:01:25.458Z,100468.25
2022-11-15T05:04:31.955Z,100466.50
2022-11-15T05:07:38.341Z,100477.53
2022-11-15T05:10:44.506Z,100473.09
2022-11-15T05:13:51.151Z,100464.44
2022-11-15T05:16:57.525Z,100460.97
2022-11-15T05:20:04.326Z,100465.84
2022-11-15T05:23:10.520Z,100461.38
2022-11-15T05:26:18.602Z,100468.72
2022-11-15T05:29:24.569Z,100476.94
2022-11-15T05:32:30.615Z,100465.09
2022-11-15T05:35:40.250Z,100457.97
2022-11-15T05:38:50.910Z,100449.56
2022-11-15T05:42:00.994Z,100449.44
2022-11-15T05:45:07.740Z,100459.28
2022-11-15T05:48:14.811Z,100455.50
2022-11-15T05:51:22.231Z,100450.41
2022-11-15T05:54:28.206Z,100446.47
2022-11-15T05:57:35.287Z,100444.19
2022-11-15T06:00:41.567Z,100440.81
2022-11-15T06:03:47.659Z,100431.63
2022-11-15T06:06:54.004Z,100438.94
2022-11-15T06:10:00.211Z,100435.03
2022-11-15T06:13:06.343Z,100434.78
2022-11-15T06:16:12.422Z,100441.19
2022-11-15T06:19:18.788Z,100436.81
2022-11-15T06:22:24.963Z,100427.22
2022-11-15T06:25:31.661Z,100422.72
2022-11-15T06:28:37.986Z,100414.91
2022-11-15T06:31:44.062Z,100423.72
2022-11-15T06:34:50.016Z,100417.44
2022-11-15T06:37:56.095Z,100411.56
2022-11-15T06:41:06.377Z,100417.63
2022-11-15T06:44:12.248Z,100404.38
2022-11-15T06:47:18.332Z,100403.00
2022-11-15T06:50:24.464Z,100406.03
2022-11-15T06:53:31.193Z,100405.84
2022-11-15T06:56:37.489Z,100401.81
2022-11-15T06:59:43.515Z,100390.59
2022-11-15T07:02:52.184Z,100387.75
2022-11-15T07:06:04.220Z,100391.28
2022-11-15T07:09:13.130Z,100385.88
2022-11-15T07:12:18.976Z,100378.72
2022-11-15T07:15:25.658Z,100373.38
2022-11-15T07:18:31.635Z,100370.94
2022-11-15T07:21:37.753Z,100364.97
2022-11-15T07:24:43.928Z,100372.88
2022-11-15T07:28:01.685Z,100362.53
2022-11-15T07:31:08.715Z,100375.53
2022-11-15T07:34:14.419Z,100367.47
2022-11-15T07:37:20.314Z,100362.28
2022-11-15T07:40:30.200Z,100351.38
2022-11-15T07:43:36.495Z,100350.66
2022-11-15T07:46:42.268Z,100346.88
2022-11-15T07:49:48.386Z,100334.56
2022-11-15T07:52:55.081Z,100336.00
2022-11-15T07:56:00.967Z,100333.75
2022-11-15T07:59:06.824Z,100330.44
2022-11-15T08:02:12.912Z,100329.34
2022-11-15T08:05:19.032Z,100330.78
2022-11-15T08:08:24.867Z,100327.00
2022-11-15T08:11:31.096Z,100327.72
2022-11-15T08:14:36.996Z,100334.59
2022-11-15T08:17:43.257Z,100325.16
2022-11-15T08:20:49.230Z,100323.75
2022-11-15T08:23:55.108Z,100332.78
2022-11-15T08:27:01.341Z,100320.06
2022-11-15T08:30:08.441Z,100321.63
2022-11-15T08:33:15.076Z,100315.34
2022-11-15T08:36:21.247Z,100308.06
2022-11-15T08:39:27.288Z,100305.28
2022-11-15T08:42:33.515Z,100307.97
2022-11-15T08:45:39.762Z,100300.69
2022-11-15T08:48:45.943Z,100296.56
2022-11-15T08:51:51.871Z,100298.09
2022-11-15T08:54:57.588Z,100293.13
2022-11-15T08:58:03.518Z,100300.13
2022-11-15T09:01:18.662Z,100291.91
2022-11-15T09:04:25.079Z,100293.56
2022-11-15T09:07:31.830Z,100288.34
2022-11-15T09:10:38.321Z,100283.41
2022-11-15T09:13:44.472Z,100278.28
2022-11-15T09:16:50.492Z,100270.88
2022-11-15T09:19:56.518Z,100275.78
2022-11-15T09:23:03.276Z,100270.38
2022-11-15T09:26:09.545Z,100265.13
2022-11-15T09:29:15.695Z,100255.88
2022-11-15T09:32:23.300Z,100257.78
2022-11-15T09:35:29.557Z,100256.88
2022-11-15T09:38:35.983Z,100254.63
2022-11-15T09:41:57.787Z,100257.53
2022-11-15T09:45:14.270Z,100248.53
2022-11-15T09:48:20.350Z,100247.00
2022-11-15T09:51:30.943Z,100247.69
2022-11-15T09:54:51.469Z,100240.91
2022-11-15T09:57:46.176Z,100243.81
2022-11-15T10:00:46.385Z,100244.97
2022-11-15T10:03:36.380Z,100243.03
2022-11-15T10:06:24.977Z,100241.63
2022-11-15T10:09:23.878Z,100229.91
2022-11-15T10:12:13.851Z,100241.94
2022-11-15T10:15:03.711Z,100232.50
2022-11-15T10:18:11.347Z,100231.47
2022-11-15T10:21:00.977Z,100224.31
2022-11-15T10:23:48.880Z,100216.81
2022-11-15T10:26:36.400Z,100199.78
2022-11-15T10:29:27.230Z,100191.56
2022-11-15T10:32:15.949Z,100191.47
2022-11-15T10:35:17.151Z,100187.59
2022-11-15T10:38:08.725Z,100187.91
2022-11-15T10:41:07.135Z,100189.16
2022-11-15T10:44:12.513Z,100184.94
2022-11-15T10:47:00.060Z,100178.06
2022-11-15T10:49:54.754Z,100175.63
2022-11-15T10:52:46.502Z,100177.56
2022-11-15T10:55:35.120Z,100174.41
2022-11-15T10:58:25.512Z,100166.19
2022-11-15T11:01:18.093Z,100167.44
2022-11-15T11:04:05.723Z,100165.41
2022-11-15T11:06:54.479Z,100150.38
2022-11-15T11:09:44.687Z,100146.69
2022-11-15T11:12:33.841Z,100151.59
2022-11-15T11:15:23.645Z,100142.75
2022-11-15T11:18:23.160Z,100143.59
2022-11-15T11:21:15.599Z,100136.00
2022-11-15T11:24:09.458Z,100134.25
2022-11-15T11:27:05.822Z,100135.88
2022-11-15T11:29:53.296Z,100136.59
2022-11-15T11:32:59.689Z,100127.75
2022-11-15T11:35:47.125Z,100131.59
2022-11-15T11:38:50.990Z,100125.34
2022-11-15T11:41:45.129Z,100118.78
2022-11-15T11:44:38.761Z,100125.16
2022-11-15T11:47:32.187Z,100123.66
2022-11-15T11:50:21.062Z,100121.69
2022-11-15T11:53:27.262Z,100113.88
2022-11-15T11:56:22.692Z,100116.25
2022-11-15T11:59:18.916Z,100114.94
2022-11-15T12:02:20.116Z,100110.47
2022-11-15T12:05:16.928Z,100108.81
2022-11-15T12:08:12.451Z,100112.72
2022-11-15T12:11:11.425Z,100109.69
2022-11-15T12:14:04.699Z,100107.41
2022-11-15T12:16:52.175Z,100100.84
2022-11-15T12:19:40.532Z,100094.00
2022-11-15T12:22:40.026Z,100083.94
2022-11-15T12:25:33.530Z,100089.59
2022-11-15T12:28:27.910Z,100090.34
2022-11-15T12:31:18.136Z,100080.59
2022-11-15T12:34:14.969Z,100082.06
2022-11-15T12:37:04.666Z,100085.03
2022-11-15T12:40:12.505Z,100081.03
2022-11-15T12:43:27.803Z,100073.63
2022-11-15T12:46:22.634Z,100076.41
2022-11-15T12:49:22.277Z,100067.91
2022-11-15T12:52:10.347Z,100070.75
2022-11-15T12:55:02.054Z,100064.22
2022-11-15T12:57:52.453Z,100057.78
2022-11-15T13:00:40.256Z,100054.56
2022-11-15T13:03:28.638Z,100051.13
2022-11-15T13:06:35.741Z,100050.28
2022-11-15T13:09:46.468Z,100052.03
2022-11-15T13:12:40.008Z,100052.34
2022-11-15T13:15:30.618Z,100037.38
2022-11-15T13:18:33.082Z,100027.94
2022-11-15T13:21:42.471Z,100033.88
2022-11-15T13:24:30.786Z,100022.00
2022-11-15T13:27:20.558Z,100020.38
2022-11-15T13:30:15.463Z,100017.09
2022-11-15T13:33:09.538Z,100024.22
2022-11-15T13:35:58.936Z,100022.38
2022-11-15T13:38:54.675Z,100012.53
2022-11-15T13:41:49.377Z,100015.41
2022-11-15T13:44:36.790Z,100005.38
2022-11-15T13:47:27.856Z,100003.31
2022-11-15T13:50:15.742Z,100003.06
2022-11-15T13:53:04.733Z,100002.94
2022-11-15T13:55:52.843Z,100000.75
2022-11-15T13:58:40.889Z,100003.63
2022-11-15T14:01:32.013Z,100000.25
2022-11-15T14:04:21.400Z,100002.78
2022-11-15T14:07:17.217Z,100006.25
2022-11-15T14:10:29.195Z,99998.50
2022-11-15T14:13:29.992Z,99988.19
2022-11-15T14:16:21.903Z,99993.41
2022-11-15T14:19:21.402Z,99994.41
2022-11-15T14:22:10.499Z,99990.28
2022-11-15T14:25:14.107Z,99988.66
2022-11-15T14:28:16.513Z,99981.09
2022-11-15T14:31:08.036Z,99981.09
2022-11-15T14:33:55.614Z,99976.63
2022-11-15T14:36:43.038Z,99970.31
2022-11-15T14:39:30.518Z,99970.03
2022-11-15T14:42:18.495Z,99968.88
2022-11-15T14:45:13.675Z,99959.69
2022-11-15T14:48:09.969Z,99959.50
2022-11-15T14:50:58.461Z,99953.53
2022-11-15T14:53:52.626Z,99944.16
2022-11-15T14:56:40.334Z,99939.25
2022-11-15T14:59:27.988Z,99941.09
2022-11-15T15:02:26.355Z,99940.16
2022-11-15T15:06:16.579Z,99934.69
2022-11-15T15:09:19.839Z,99932.47
2022-11-15T15:12:59.808Z,99944.50
2022-11-15T15:30:07.282Z,99919.78
2022-11-15T16:19:17.504Z,99866.31
2022-11-15T16:22:05.211Z,99862.31
2022-11-15T16:24:52.685Z,99855.78
2022-11-15T16:27:45.813Z,99855.06
2022-11-15T16:30:34.513Z,99855.97
2022-11-15T16:33:21.993Z,99864.38
2022-11-15T16:36:19.276Z,99860.59
2022-11-15T16:39:07.523Z,99859.38
2022-11-15T16:41:55.102Z,99853.16
2022-11-15T16:44:42.506Z,99846.22
2022-11-15T16:47:29.884Z,99849.28
2022-11-15T16:50:25.286Z,99837.13
2022-11-15T16:53:12.880Z,99836.19
2022-11-15T16:56:00.359Z,99831.09
2022-11-15T16:58:47.817Z,99836.19
2022-11-15T17:01:36.609Z,99831.91
2022-11-15T17:04:24.234Z,99831.59
2022-11-15T17:07:11.822Z,99826.47
2022-11-15T17:09:59.352Z,99826.41
2022-11-15T17:12:46.851Z,99827.09
2022-11-15T17:15:34.221Z,99835.69
2022-11-15T17:18:21.592Z,99834.75
2022-11-15T17:21:12.210Z,99826.91
2022-11-15T17:24:00.063Z,99830.38
2022-11-15T17:26:48.802Z,99830.59
2022-11-15T17:29:36.606Z,99828.25
2022-11-15T17:32:24.281Z,99824.97
2022-11-15T17:35:15.645Z,99825.03
2022-11-15T17:38:03.391Z,99818.31
2022-11-15T17:41:00.193Z,99813.72
2022-11-15T17:43:48.307Z,99816.47
2022-11-15T17:46:36.479Z,99818.38
2022-11-15T17:49:23.873Z,99817.38
2022-11-15T17:52:11.382Z,99814.81
2022-11-15T17:54:58.786Z,99815.31
2022-11-15T17:57:46.203Z,99816.69
2022-11-15T18:00:33.971Z,99815.53
2022-11-15T18:03:21.371Z,99805.97
2022-11-15T18:06:09.468Z,99806.66
2022-11-15T18:08:57.226Z,99804.91
2022-11-15T18:11:50.555Z,99805.25
2022-11-15T18:14:37.997Z,99801.03
2022-11-15T18:17:25.665Z,99801.75
2022-11-15T18:20:13.254Z,99797.38
2022-11-15T18:23:00.650Z,99794.59
2022-11-15T18:25:51.530Z,99795.31
2022-11-15T18:28:39.888Z,99792.75
2022-11-15T18:31:28.288Z,99795.41
2022-11-15T18:34:15.654Z,99789.59
2022-11-15T18:37:03.476Z,99788.25
2022-11-15T18:39:53.860Z,99783.25
2022-11-15T18:42:41.566Z,99787.53
2022-11-15T18:45:29.232Z,99786.63
2022-11-15T18:48:16.634Z,99790.00
2022-11-15T18:51:05.493Z,99786.41
2022-11-15T18:53:56.986Z,99788.16
2022-11-15T18:56:45.651Z,99784.81
2022-11-15T18:59:33.118Z,99773.03
2022-11-15T19:02:20.570Z,99786.72
2022-11-15T19:05:08.222Z,99776.81
2022-11-15T19:07:55.606Z,99778.66
2022-11-15T19:10:42.966Z,99771.19
2022-11-15T19:13:30.657Z,99774.06
2022-11-15T19:16:18.267Z,99767.63
2022-11-15T19:19:07.945Z,99756.47
2022-11-15T19:21:57.193Z,99759.56
2022-11-15T19:24:44.569Z,99764.03
2022-11-15T19:27:35.611Z,99761.97
2022-11-15T19:30:25.420Z,99752.69
2022-11-15T19:33:12.783Z,99758.72
2022-11-15T19:36:02.909Z,99746.88
2022-11-15T19:38:50.439Z,99758.00
2022-11-15T19:41:38.667Z,99757.78
2022-11-15T19:44:27.315Z,99750.03
2022-11-15T19:47:14.663Z,99751.69
2022-11-15T19:50:02.106Z,99750.56
2022-11-15T19:52:51.389Z,99746.25
2022-11-15T19:55:38.857Z,99751.56
2022-11-15T19:58:28.150Z,99750.13
2022-11-15T20:01:23.291Z,99739.41
2022-11-15T20:04:10.721Z,99735.59
2022-11-15T20:06:58.145Z,99735.09
2022-11-15T20:09:45.615Z,99738.59
2022-11-15T20:12:33.000Z,99726.00
2022-11-15T20:15:20.765Z,99725.28
2022-11-15T20:18:09.017Z,99734.38
2022-11-15T20:20:59.733Z,99729.28
2022-11-15T20:23:47.864Z,99735.81
2022-11-15T20:26:35.700Z,99731.00
2022-11-15T20:29:23.501Z,99730.38
2022-11-15T20:32:11.598Z,99737.84
2022-11-15T20:34:58.968Z,99733.34
2022-11-15T20:37:46.365Z,99732.22
2022-11-15T20:40:34.122Z,99733.66
2022-11-15T20:43:21.521Z,99730.94
2022-11-15T20:46:09.651Z,99739.50
2022-11-15T20:48:57.104Z,99730.28
2022-11-15T20:51:44.438Z,99730.22
2022-11-15T20:54:31.813Z,99732.75
2022-11-15T20:57:19.184Z,99729.06
2022-11-15T21:00:07.098Z,99717.84
2022-11-15T21:02:54.459Z,99722.75
2022-11-15T21:05:42.731Z,99716.94
2022-11-15T21:08:50.150Z,99718.66
2022-11-15T21:11:56.068Z,99719.16
2022-11-15T21:14:48.999Z,99722.94
2022-11-15T21:17:36.465Z,99718.97
2022-11-15T21:20:23.863Z,99718.13
2022-11-15T21:23:11.870Z,99716.91
2022-11-15T21:25:59.436Z,99711.63
2022-11-15T21:28:46.786Z,99721.72
2022-11-15T21:31:34.246Z,99718.25
2022-11-15T21:34:21.737Z,99722.53
2022-11-15T21:37:10.607Z,99715.59
2022-11-15T21:39:57.970Z,99717.00
2022-11-15T21:42:45.447Z,99716.81
2022-11-15T21:45:32.841Z,99716.00
2022-11-15T21:48:20.210Z,99718.44
2022-11-15T21:51:10.029Z,99713.34
2022-11-15T21:53:57.649Z,99715.91
2022-11-15T21:56:45.092Z,99716.22
2022-11-15T21:59:32.516Z,99715.59
2022-11-15T22:02:21.263Z,99716.72
2022-11-15T22:05:08.836Z,99715.47
2022-11-15T22:07:56.271Z,99711.50
2022-11-15T22:10:46.689Z,99717.63
2022-11-15T22:13:34.217Z,99716.06
2022-11-15T22:16:21.779Z,99710.25
2022-11-15T22:19:09.313Z,99714.63
2022-11-15T22:21:57.058Z,99714.63
2022-11-15T22:24:44.623Z,99715.34
2022-11-15T22:27:32.134Z,99711.91
2022-11-15T22:30:19.975Z,99711.91
2022-11-15T22:33:07.705Z,99713.63
2022-11-15T22:35:55.336Z,99707.69
2022-11-15T22:38:42.857Z,99714.25
2022-11-15T22:41:30.369Z,99710.78
2022-11-15T22:44:17.858Z,99714.97
2022-11-15T22:47:05.471Z,99714.25
2022-11-15T22:49:52.989Z,99708.41
2022-11-15T22:52:40.500Z,99714.63
2022-11-15T22:55:27.948Z,99712.09
2022-11-15T22:58:15.447Z,99709.47
2022-11-15T23:01:04.255Z,99705.97
2022-11-15T23:03:51.825Z,99704.13
2022-11-15T23:06:39.332Z,99700.97
2022-11-15T23:09:26.971Z,99704.13
2022-11-15T23:12:33.012Z,99702.34
2022-11-15T23:15:20.452Z,99699.97
2022-11-15T23:18:07.958Z,99695.56
2022-11-15T23:20:55.633Z,99697.66
2022-11-15T23:23:43.096Z,99700.53
2022-11-15T23:26:31.010Z,99704.19
2022-11-15T23:29:19.786Z,99704.97
2022-11-15T23:32:26.167Z,99701.31
2022-11-15T23:35:13.641Z,99702.25
2022-11-15T23:38:01.193Z,99693.78
2022-11-15T23:40:52.174Z,99699.59
2022-11-15T23:43:39.692Z,99699.22
2022-11-15T23:46:27.504Z,99702.28
2022-11-15T23:49:14.942Z,99700.44
2022-11-15T23:52:02.478Z,99700.97
2022-11-15T23:54:50.188Z,99702.22
2022-11-15T23:57:37.702Z,99700.19
